Time;durP1;ratioP1;P1;durP2;ratioP2;P2;SDS_P1;SDS_P2;PMS_P1;PMS_P2;Temp;Humidity;BMP_temperature;BMP_pressure;BME280_temperature;BME280_humidity;BME280_pressure;Samples;Min_cycle;Max_cycle;Signal;HPM_P1;HPM_P2
2024/04/05 00:00:45;;;;;;;2.80;1.50;;;12.20;99.90;;;;;;5058934;28;20465;-73
2024/04/05 00:03:11;;;;;;;2.00;1.30;;;12.20;99.90;;;;;;5055187;28;20465;-72
2024/04/05 00:05:37;;;;;;;9.20;2.00;;;12.20;99.90;;;;;;5057932;28;20808;-72
2024/04/05 00:08:02;;;;;;;2.13;1.90;;;12.20;99.90;;;;;;5052478;28;20302;-71
2024/04/05 00:10:29;;;;;;;3.00;1.50;;;12.20;99.90;;;;;;5057542;28;20215;-73
2024/04/05 00:12:55;;;;;;;2.93;1.50;;;12.20;99.90;;;;;;5056776;28;20219;-71
2024/04/05 00:15:21;;;;;;;5.37;1.80;;;12.20;99.90;;;;;;5054719;28;21059;-72
2024/04/05 00:17:47;;;;;;;1.70;1.60;;;12.30;99.90;;;;;;5056111;28;20460;-71
2024/04/05 00:20:13;;;;;;;2.60;1.90;;;12.30;99.90;;;;;;5053522;28;20230;-70
2024/04/05 00:22:39;;;;;;;2.90;1.50;;;12.30;99.90;;;;;;5055161;28;20223;-73
2024/04/05 00:25:05;;;;;;;5.00;2.00;;;12.30;99.90;;;;;;5052765;28;20469;-71
2024/04/05 00:27:31;;;;;;;2.23;1.63;;;12.40;99.90;;;;;;5058559;28;21036;-72
2024/04/05 00:29:56;;;;;;;2.83;1.80;;;12.40;99.90;;;;;;5057884;28;20236;-71
2024/04/05 00:32:22;;;;;;;2.30;1.73;;;12.40;99.90;;;;;;5052312;28;20218;-71
2024/04/05 00:34:48;;;;;;;5.20;2.17;;;12.40;99.90;;;;;;5058269;28;20211;-71
2024/04/05 00:37:14;;;;;;;4.03;2.00;;;12.40;99.90;;;;;;5054964;28;20239;-71
2024/04/05 00:39:39;;;;;;;4.60;1.97;;;12.40;99.90;;;;;;5060539;28;20223;-69
2024/04/05 00:42:05;;;;;;;4.30;2.37;;;12.40;99.90;;;;;;5054125;28;21028;-71
2024/04/05 00:44:31;;;;;;;2.20;2.00;;;12.40;99.90;;;;;;5042807;28;20304;-72
2024/04/05 00:46:58;;;;;;;3.90;1.90;;;12.40;99.90;;;;;;5042322;28;20223;-72
2024/04/05 00:49:25;;;;;;;3.80;1.73;;;12.40;99.90;;;;;;5051605;28;20731;-70
2024/04/05 00:51:51;;;;;;;3.33;1.63;;;12.40;99.90;;;;;;5057597;28;20454;-71
2024/04/05 00:54:17;;;;;;;3.63;1.83;;;12.40;99.90;;;;;;5046992;28;20604;-71
2024/04/05 00:56:43;;;;;;;4.33;1.90;;;12.40;99.90;;;;;;5061423;28;20540;-72
2024/04/05 00:59:10;;;;;;;3.70;2.07;;;12.40;99.90;;;;;;5062443;28;20221;-71
2024/04/05 01:01:37;;;;;;;4.00;1.80;;;12.40;99.90;;;;;;5063623;28;20223;-72
2024/04/05 01:04:04;;;;;;;2.90;2.00;;;12.40;99.90;;;;;;5059117;28;20976;-71
2024/04/05 01:06:30;;;;;;;4.53;1.87;;;12.40;99.90;;;;;;5061673;28;20500;-72
2024/04/05 01:08:56;;;;;;;4.10;2.17;;;12.40;99.90;;;;;;5062359;28;20469;-71
2024/04/05 01:11:21;;;;;;;7.43;2.80;;;12.40;99.90;;;;;;5057241;28;20499;-71
2024/04/05 01:13:48;;;;;;;3.10;1.97;;;12.40;99.90;;;;;;5058481;28;20475;-72
2024/04/05 01:16:14;;;;;;;2.97;1.70;;;12.40;99.90;;;;;;5058435;28;20307;-71
2024/04/05 01:18:43;;;;;;;2.53;2.30;;;12.40;99.90;;;;;;5059925;28;20525;-71
2024/04/05 01:21:09;;;;;;;3.80;1.63;;;12.40;99.90;;;;;;5057652;28;20879;-72
2024/04/05 01:23:41;;;;;;;2.63;2.03;;;12.40;99.90;;;;;;5043547;28;20491;-71
2024/04/05 01:26:06;;;;;;;5.67;1.77;;;12.40;99.90;;;;;;5055797;28;20476;-70
2024/04/05 01:28:32;;;;;;;5.33;3.27;;;12.40;99.90;;;;;;5043416;28;20469;-72
2024/04/05 01:30:58;;;;;;;3.40;2.10;;;12.40;99.90;;;;;;5062743;28;20330;-71
2024/04/05 01:33:24;;;;;;;2.57;1.53;;;12.40;99.90;;;;;;5056021;28;20256;-72
2024/04/05 01:35:50;;;;;;;4.23;1.97;;;12.40;99.90;;;;;;5060780;28;20219;-70
2024/04/05 01:38:15;;;;;;;5.53;2.07;;;12.40;99.90;;;;;;5057959;28;20464;-72
2024/04/05 01:40:41;;;;;;;2.00;1.80;;;12.40;99.90;;;;;;5060427;28;20287;-71
2024/04/05 01:43:07;;;;;;;2.20;1.80;;;12.40;99.90;;;;;;5056354;28;20396;-71
2024/04/05 01:45:32;;;;;;;2.17;1.70;;;12.30;99.90;;;;;;5057664;28;20215;-72
2024/04/05 01:47:58;;;;;;;4.53;2.40;;;12.30;99.90;;;;;;5059609;28;20215;-72
2024/04/05 01:50:24;;;;;;;5.63;2.23;;;12.30;99.90;;;;;;5058192;28;20242;-71
2024/04/05 01:52:49;;;;;;;5.37;1.90;;;12.30;99.90;;;;;;5060878;28;20728;-72
2024/04/05 01:55:15;;;;;;;3.57;2.40;;;12.30;99.90;;;;;;5057847;28;20219;-72
2024/04/05 01:57:41;;;;;;;2.47;2.23;;;12.30;99.90;;;;;;5061927;28;20305;-72
2024/04/05 02:00:07;;;;;;;4.03;2.23;;;12.30;99.90;;;;;;5057636;28;20230;-72
2024/04/05 02:02:41;;;;;;;8.30;2.13;;;12.30;99.90;;;;;;5061808;28;20746;-72
2024/04/05 02:05:07;;;;;;;2.80;2.00;;;12.30;99.90;;;;;;5055881;28;20454;-72
2024/04/05 02:07:32;;;;;;;1.93;1.70;;;12.30;99.90;;;;;;5060220;28;20219;-72
2024/04/05 02:09:58;;;;;;;3.70;1.70;;;12.40;99.90;;;;;;5059910;28;20453;-72
2024/04/05 02:12:28;;;;;;;3.80;2.07;;;12.30;99.90;;;;;;5055718;28;20253;-72
2024/04/05 02:14:54;;;;;;;2.77;2.00;;;12.30;99.90;;;;;;5059589;28;20215;-71
2024/04/05 02:17:19;;;;;;;5.90;2.47;;;12.20;99.90;;;;;;5057310;28;20461;-72
2024/04/05 02:19:45;;;;;;;2.20;2.00;;;12.20;99.90;;;;;;5059421;28;20211;-72
2024/04/05 02:22:11;;;;;;;4.80;2.20;;;12.20;99.90;;;;;;5055782;28;20199;-72
2024/04/05 02:24:37;;;;;;;2.03;1.83;;;12.30;99.90;;;;;;5063832;28;20708;-72
2024/04/05 02:27:03;;;;;;;3.93;1.53;;;12.30;99.90;;;;;;5039097;28;20218;-72
2024/04/05 02:29:29;;;;;;;4.33;1.93;;;12.30;99.90;;;;;;5061566;28;20469;-72
2024/04/05 02:31:54;;;;;;;2.80;2.23;;;12.30;99.90;;;;;;5059587;28;20241;-72
2024/04/05 02:34:20;;;;;;;3.37;2.13;;;12.30;99.90;;;;;;5058620;28;20256;-71
2024/04/05 02:36:46;;;;;;;3.20;2.10;;;12.30;99.90;;;;;;5076581;28;20223;-72
2024/04/05 02:39:12;;;;;;;3.27;2.07;;;12.40;99.90;;;;;;5055376;28;20606;-72
2024/04/05 02:41:37;;;;;;;3.90;2.03;;;12.40;99.90;;;;;;5056281;28;20223;-72
2024/04/05 02:44:03;;;;;;;3.90;2.17;;;12.40;99.90;;;;;;5056525;28;20230;-72
2024/04/05 02:46:29;;;;;;;3.37;1.60;;;12.40;99.90;;;;;;5063006;28;20219;-72
2024/04/05 02:48:55;;;;;;;3.17;1.90;;;12.30;99.90;;;;;;5061888;28;20277;-72
2024/04/05 02:51:21;;;;;;;6.40;2.30;;;12.30;99.90;;;;;;5054836;28;20489;-72
2024/04/05 02:53:47;;;;;;;5.43;2.20;;;12.30;99.90;;;;;;5060729;28;20993;-73
2024/04/05 02:56:16;;;;;;;2.20;2.00;;;12.30;99.90;;;;;;5055481;28;20469;-72
2024/04/05 02:58:42;;;;;;;2.20;2.00;;;12.30;99.90;;;;;;5040090;28;20566;-72
2024/04/05 03:01:08;;;;;;;3.77;2.60;;;12.30;99.90;;;;;;5038989;28;20469;-73
2024/04/05 03:03:33;;;;;;;3.37;1.60;;;12.30;99.90;;;;;;5058947;28;20476;-72
2024/04/05 03:05:59;;;;;;;2.20;2.00;;;12.30;99.90;;;;;;5059911;28;20603;-71
2024/04/05 03:08:24;;;;;;;3.37;2.23;;;12.30;99.90;;;;;;5057317;28;20219;-71
2024/04/05 03:10:50;;;;;;;2.20;2.00;;;12.30;99.90;;;;;;5061520;28;20735;-73
2024/04/05 03:13:16;;;;;;;4.80;2.27;;;12.30;99.90;;;;;;5066294;28;20660;-73
2024/04/05 03:15:41;;;;;;;4.27;2.10;;;12.20;99.90;;;;;;5067256;28;20739;-72
2024/04/05 03:18:07;;;;;;;3.10;2.80;;;12.20;99.90;;;;;;5066330;28;20223;-72
2024/04/05 03:20:33;;;;;;;4.77;2.40;;;12.20;99.90;;;;;;5064911;28;20223;-72
2024/04/05 03:22:58;;;;;;;2.60;2.40;;;12.10;99.90;;;;;;5063383;28;20322;-72
2024/04/05 03:25:24;;;;;;;5.97;2.20;;;12.10;99.90;;;;;;5065577;28;20669;-71
2024/04/05 03:27:50;;;;;;;2.33;1.90;;;12.10;99.90;;;;;;5065062;28;20222;-72
2024/04/05 03:30:16;;;;;;;4.93;2.10;;;12.10;99.90;;;;;;5066529;28;20289;-72
2024/04/05 03:32:41;;;;;;;5.40;2.20;;;12.20;99.90;;;;;;5066349;28;20227;-72
2024/04/05 03:35:07;;;;;;;3.23;1.97;;;12.20;99.90;;;;;;5048677;28;20458;-72
2024/04/05 03:37:33;;;;;;;2.50;2.30;;;12.10;99.90;;;;;;5063725;28;20226;-72
2024/04/05 03:40:00;;;;;;;5.13;2.30;;;12.10;99.90;;;;;;5064547;28;20218;-72
2024/04/05 03:42:26;;;;;;;10.73;2.10;;;12.10;99.90;;;;;;5064402;28;20465;-71
2024/04/05 03:44:51;;;;;;;2.63;2.00;;;12.10;99.90;;;;;;5065815;28;20457;-72
2024/04/05 03:47:17;;;;;;;1.67;1.57;;;12.10;99.90;;;;;;5038798;28;20468;-73
2024/04/05 03:49:43;;;;;;;2.63;2.40;;;12.00;99.90;;;;;;5060275;28;20211;-73
2024/04/05 03:52:08;;;;;;;2.77;2.10;;;12.00;99.90;;;;;;5058167;28;20233;-73
2024/04/05 03:54:34;;;;;;;6.80;1.90;;;12.00;99.90;;;;;;5059730;28;20261;-73
2024/04/05 03:57:00;;;;;;;11.80;2.80;;;12.00;99.90;;;;;;5040710;28;20268;-72
2024/04/05 03:59:29;;;;;;;5.00;2.10;;;11.90;99.90;;;;;;5059448;28;20247;-71
2024/04/05 04:01:54;;;;;;;2.63;2.30;;;11.90;99.90;;;;;;5056864;28;20215;-73
2024/04/05 04:04:21;;;;;;;2.60;2.23;;;11.90;99.90;;;;;;5057682;28;20533;-72
2024/04/05 04:06:48;;;;;;;3.03;2.67;;;11.90;99.90;;;;;;5057620;28;21020;-72
2024/04/05 04:09:15;;;;;;;3.33;1.90;;;11.90;99.90;;;;;;5040945;28;20500;-71
2024/04/05 04:11:42;;;;;;;2.40;2.10;;;11.90;99.90;;;;;;5059586;28;20472;-72
2024/04/05 04:14:07;;;;;;;2.00;1.90;;;11.90;99.90;;;;;;5059032;28;20462;-71
2024/04/05 04:16:33;;;;;;;3.40;2.20;;;11.80;99.90;;;;;;5062686;28;20458;-72
2024/04/05 04:18:59;;;;;;;3.33;2.20;;;11.80;99.90;;;;;;5061363;28;20604;-71
2024/04/05 04:21:25;;;;;;;2.17;1.87;;;11.80;99.90;;;;;;5041665;28;20268;-71
2024/04/05 04:23:54;;;;;;;2.73;2.40;;;11.80;99.90;;;;;;5063575;28;20697;-71
2024/04/05 04:26:20;;;;;;;2.50;2.20;;;11.80;99.90;;;;;;5056904;28;20464;-72
2024/04/05 04:28:48;;;;;;;3.33;2.20;;;11.80;99.90;;;;;;5046111;28;20469;-72
2024/04/05 04:31:20;;;;;;;3.83;1.97;;;11.80;99.90;;;;;;5059971;28;20466;-71
2024/04/05 04:33:46;;;;;;;4.43;2.43;;;11.80;99.90;;;;;;5065013;28;20602;-69
2024/04/05 04:36:12;;;;;;;3.13;2.50;;;11.80;99.90;;;;;;5041863;28;20499;-71
2024/04/05 04:38:38;;;;;;;2.50;2.30;;;11.80;99.90;;;;;;5063126;28;20473;-70
2024/04/05 04:41:04;;;;;;;3.57;2.57;;;11.70;99.90;;;;;;5058579;28;20337;-71
2024/04/05 04:43:30;;;;;;;2.40;1.97;;;11.70;99.90;;;;;;5060989;28;20968;-72
2024/04/05 04:45:56;;;;;;;4.03;2.10;;;11.70;99.90;;;;;;5062130;28;20461;-71
2024/04/05 04:48:21;;;;;;;8.70;2.30;;;11.70;99.90;;;;;;5060365;28;20219;-71
2024/04/05 04:50:47;;;;;;;2.40;2.20;;;11.80;99.90;;;;;;5060497;28;20287;-72
2024/04/05 04:53:13;;;;;;;2.67;1.90;;;11.70;99.90;;;;;;5059666;28;20211;-71
2024/04/05 04:55:41;;;;;;;2.63;1.80;;;11.80;99.90;;;;;;5063377;28;20223;-71
2024/04/05 04:58:07;;;;;;;4.10;2.17;;;11.80;99.90;;;;;;5057727;28;20222;-72
2024/04/05 05:00:32;;;;;;;3.70;1.83;;;11.80;99.90;;;;;;5060277;28;20461;-72
2024/04/05 05:02:58;;;;;;;2.50;1.73;;;11.80;99.90;;;;;;5043001;28;20310;-71
2024/04/05 05:05:23;;;;;;;2.90;1.90;;;11.80;99.90;;;;;;5059931;28;20243;-71
2024/04/05 05:07:49;;;;;;;4.77;2.70;;;11.80;99.90;;;;;;5061895;28;20219;-72
2024/04/05 05:10:15;;;;;;;3.80;2.57;;;11.80;99.90;;;;;;5056729;28;20214;-71
2024/04/05 05:12:40;;;;;;;5.43;3.20;;;11.80;99.90;;;;;;5062703;28;20587;-71
2024/04/05 05:15:06;;;;;;;4.27;2.07;;;11.80;99.90;;;;;;5055973;28;20223;-72
2024/04/05 05:17:32;;;;;;;6.27;2.90;;;11.80;99.90;;;;;;5064344;28;20298;-72
2024/04/05 05:19:59;;;;;;;6.83;3.03;;;11.80;99.90;;;;;;5062861;28;20306;-72
2024/04/05 05:22:25;;;;;;;3.13;2.80;;;11.80;99.90;;;;;;5057082;28;20546;-71
2024/04/05 05:24:51;;;;;;;3.50;3.20;;;11.80;99.90;;;;;;5063749;28;20897;-72
2024/04/05 05:27:16;;;;;;;7.10;4.50;;;11.80;99.90;;;;;;5058048;28;20731;-72
2024/04/05 05:29:43;;;;;;;3.93;3.60;;;11.80;99.90;;;;;;5060909;28;20610;-72
2024/04/05 05:32:11;;;;;;;3.60;3.30;;;11.80;99.90;;;;;;5057269;28;20223;-73
2024/04/05 05:34:38;;;;;;;5.73;3.67;;;11.80;99.90;;;;;;5063761;28;20476;-73
2024/04/05 05:37:04;;;;;;;4.60;4.20;;;11.80;99.90;;;;;;5057593;28;20461;-71
2024/04/05 05:39:29;;;;;;;5.33;4.70;;;11.80;99.90;;;;;;5045925;28;20460;-71
2024/04/05 05:41:55;;;;;;;6.27;5.53;;;11.80;99.90;;;;;;5065360;28;20212;-73
2024/04/05 05:44:21;;;;;;;6.47;5.87;;;11.80;99.90;;;;;;5058753;28;20347;-72
2024/04/05 05:46:46;;;;;;;5.17;4.77;;;11.80;99.90;;;;;;5060369;28;20238;-72
2024/04/05 05:49:12;;;;;;;6.83;4.87;;;11.80;99.90;;;;;;5041333;28;20219;-72
2024/04/05 05:51:38;;;;;;;4.80;4.40;;;11.80;99.90;;;;;;5063604;28;20230;-72
2024/04/05 05:54:04;;;;;;;5.47;4.97;;;11.80;99.90;;;;;;5058538;28;20461;-73
2024/04/05 05:56:29;;;;;;;4.23;3.83;;;11.80;99.90;;;;;;5062603;28;20234;-71
2024/04/05 05:58:55;;;;;;;4.03;3.60;;;11.80;99.90;;;;;;5063625;28;20226;-72
2024/04/05 06:01:21;;;;;;;4.23;3.90;;;11.70;99.90;;;;;;5055073;28;20235;-71
2024/04/05 06:03:46;;;;;;;4.40;3.47;;;11.70;99.90;;;;;;5061992;28;20234;-70
2024/04/05 06:06:12;;;;;;;4.90;3.20;;;11.70;99.90;;;;;;5055762;28;20219;-72
2024/04/05 06:08:39;;;;;;;3.13;2.60;;;11.80;99.90;;;;;;5060389;28;20219;-72
2024/04/05 06:11:04;;;;;;;6.10;3.20;;;11.80;99.90;;;;;;5058581;28;20294;-72
2024/04/05 06:13:30;;;;;;;2.90;2.50;;;11.80;99.90;;;;;;5060918;28;20471;-73
2024/04/05 06:15:58;;;;;;;3.13;2.77;;;11.90;99.90;;;;;;5062434;28;20304;-72
2024/04/05 06:18:26;;;;;;;4.27;2.77;;;11.90;99.90;;;;;;5056632;28;20213;-72
2024/04/05 06:20:56;;;;;;;2.93;2.50;;;11.90;99.90;;;;;;5059793;28;20483;-72
2024/04/05 06:23:25;;;;;;;3.17;2.13;;;11.90;99.90;;;;;;5056747;28;20601;-72
2024/04/05 06:25:52;;;;;;;2.10;1.90;;;11.90;99.90;;;;;;5060439;28;20480;-72
2024/04/05 06:28:18;;;;;;;2.37;1.93;;;12.00;99.90;;;;;;5059031;28;20453;-72
2024/04/05 06:30:43;;;;;;;2.87;2.57;;;12.00;99.90;;;;;;5062379;28;20477;-71
2024/04/05 06:33:09;;;;;;;11.97;2.23;;;12.10;99.90;;;;;;5057074;28;20450;-72
2024/04/05 06:35:35;;;;;;;2.37;1.90;;;12.10;99.90;;;;;;5060993;28;20243;-72
2024/04/05 06:38:00;;;;;;;2.10;1.43;;;12.20;99.90;;;;;;5058950;28;20211;-73
2024/04/05 06:40:26;;;;;;;1.57;1.47;;;12.20;99.90;;;;;;5057117;28;20226;-72
2024/04/05 06:42:52;;;;;;;2.20;1.50;;;12.30;99.90;;;;;;5062649;28;20228;-72
2024/04/05 06:45:17;;;;;;;2.70;2.10;;;12.30;99.90;;;;;;5058053;28;20264;-72
2024/04/05 06:47:43;;;;;;;3.20;1.60;;;12.40;99.90;;;;;;5062343;28;20228;-73
2024/04/05 06:50:09;;;;;;;2.07;1.90;;;12.50;99.90;;;;;;5054500;28;20227;-72
2024/04/05 06:52:36;;;;;;;3.27;1.43;;;12.50;99.90;;;;;;5061859;28;20713;-72
2024/04/05 06:55:02;;;;;;;3.97;2.10;;;12.60;99.90;;;;;;5039382;28;20215;-72
2024/04/05 06:57:28;;;;;;;2.90;1.90;;;12.70;99.90;;;;;;5059228;28;20537;-72
2024/04/05 06:59:53;;;;;;;3.07;1.80;;;12.70;99.90;;;;;;5059221;28;20214;-73
2024/04/05 07:02:21;;;;;;;3.67;1.37;;;12.80;99.90;;;;;;5055647;28;20215;-72
2024/04/05 07:04:46;;;;;;;2.57;1.60;;;12.80;99.90;;;;;;5047217;28;20277;-72
2024/04/05 07:07:12;;;;;;;2.17;1.30;;;12.80;99.90;;;;;;5057142;28;20473;-73
2024/04/05 07:09:37;;;;;;;3.63;1.30;;;12.80;99.90;;;;;;5048484;28;20256;-73
2024/04/05 07:12:04;;;;;;;2.07;1.70;;;12.90;99.90;;;;;;5054691;28;20223;-72
2024/04/05 07:14:30;;;;;;;1.57;1.40;;;12.90;99.90;;;;;;5059298;28;20314;-73
2024/04/05 07:16:56;;;;;;;4.47;1.57;;;13.00;99.90;;;;;;5044255;28;20544;-72
2024/04/05 07:19:25;;;;;;;3.03;1.93;;;13.00;99.90;;;;;;5056330;28;20460;-73
2024/04/05 07:21:52;;;;;;;2.97;1.43;;;13.00;99.90;;;;;;5060960;28;20457;-72
2024/04/05 07:24:18;;;;;;;3.37;1.40;;;13.10;99.90;;;;;;5054712;28;20580;-73
2024/04/05 07:26:43;;;;;;;5.17;1.80;;;13.10;99.90;;;;;;5060558;28;20577;-72
2024/04/05 07:29:10;;;;;;;3.60;1.87;;;13.20;99.90;;;;;;5057714;28;20318;-72
2024/04/05 07:31:36;;;;;;;2.60;1.93;;;13.30;99.90;;;;;;5058002;28;20215;-73
2024/04/05 07:34:03;;;;;;;4.17;2.27;;;13.40;99.90;;;;;;5057870;28;21005;-73
2024/04/05 07:36:29;;;;;;;2.10;1.90;;;13.40;99.90;;;;;;5043058;28;20827;-72
2024/04/05 07:38:54;;;;;;;5.20;2.13;;;13.40;99.90;;;;;;5060590;28;20504;-72
2024/04/05 07:41:21;;;;;;;2.53;2.33;;;13.50;99.90;;;;;;5038896;28;20481;-73
2024/04/05 07:43:46;;;;;;;1.70;1.60;;;13.60;99.90;;;;;;5060569;28;20257;-71
2024/04/05 07:46:12;;;;;;;1.80;1.47;;;13.70;99.90;;;;;;5056617;28;20469;-72
2024/04/05 07:48:38;;;;;;;3.20;1.40;;;13.70;99.90;;;;;;5059501;28;20219;-72
2024/04/05 07:51:04;;;;;;;2.60;1.93;;;13.80;99.90;;;;;;5055532;28;20226;-72
2024/04/05 07:53:30;;;;;;;4.67;2.67;;;13.80;99.90;;;;;;5060720;28;20215;-72
2024/04/05 07:55:56;;;;;;;2.70;1.67;;;13.80;99.90;;;;;;5062418;28;21001;-72
2024/04/05 07:58:22;;;;;;;2.23;1.80;;;14.00;99.90;;;;;;5040895;28;20223;-73
2024/04/05 08:00:50;;;;;;;6.80;3.03;;;14.00;99.90;;;;;;5059525;28;20211;-73
2024/04/05 08:03:15;;;;;;;1.97;1.50;;;14.10;99.90;;;;;;5055064;28;20211;-73
2024/04/05 08:05:41;;;;;;;3.67;2.13;;;14.10;99.90;;;;;;5059271;28;21015;-72
2024/04/05 08:08:08;;;;;;;3.53;1.97;;;14.20;99.90;;;;;;5039725;28;20230;-73
2024/04/05 08:10:34;;;;;;;3.90;1.33;;;14.30;99.90;;;;;;5058954;28;20211;-72
2024/04/05 08:13:00;;;;;;;3.70;1.50;;;14.40;99.90;;;;;;5058174;28;21002;-72
2024/04/05 08:15:26;;;;;;;2.30;1.33;;;14.60;99.90;;;;;;5055735;28;20230;-72
2024/04/05 08:17:52;;;;;;;2.13;1.40;;;14.60;99.90;;;;;;5059884;28;20301;-72
2024/04/05 08:20:20;;;;;;;2.77;1.53;;;14.70;99.90;;;;;;5056161;28;20544;-72
2024/04/05 08:22:46;;;;;;;1.40;1.30;;;14.90;99.90;;;;;;5058537;28;20215;-72
2024/04/05 08:25:12;;;;;;;3.40;1.57;;;15.00;99.90;;;;;;5040444;28;20468;-72
2024/04/05 08:27:38;;;;;;;4.83;1.43;;;15.00;99.90;;;;;;5036200;28;20250;-72
2024/04/05 08:30:05;;;;;;;4.07;1.80;;;15.10;99.90;;;;;;5054179;28;20574;-73
2024/04/05 08:32:31;;;;;;;2.33;1.60;;;15.10;99.90;;;;;;5061420;28;20218;-73
2024/04/05 08:34:56;;;;;;;2.33;2.00;;;15.20;99.90;;;;;;5060772;28;20457;-72
2024/04/05 08:37:22;;;;;;;4.93;1.60;;;15.30;99.90;;;;;;5053079;28;20353;-71
2024/04/05 08:39:48;;;;;;;5.90;1.70;;;15.30;99.90;;;;;;5041725;28;20215;-71
2024/04/05 08:42:19;;;;;;;2.37;1.40;;;15.40;99.90;;;;;;5052026;28;20465;-72
2024/04/05 08:44:49;;;;;;;3.80;1.83;;;15.50;99.90;;;;;;5058170;28;20227;-71
2024/04/05 08:47:17;;;;;;;7.60;2.20;;;15.50;99.90;;;;;;5055076;28;20468;-73
2024/04/05 08:49:45;;;;;;;3.73;1.77;;;15.50;99.90;;;;;;5058654;28;20458;-70
2024/04/05 08:52:11;;;;;;;4.90;2.03;;;15.60;99.90;;;;;;5053525;28;20500;-72
2024/04/05 08:54:37;;;;;;;1.73;1.63;;;15.70;99.90;;;;;;5059509;28;20536;-73
2024/04/05 08:57:04;;;;;;;2.23;2.10;;;15.80;99.90;;;;;;5058682;28;20298;-71
2024/04/05 08:59:30;;;;;;;2.20;2.00;;;15.80;99.90;;;;;;5058405;28;20481;-71
2024/04/05 09:02:03;;;;;;;4.13;2.07;;;15.90;99.90;;;;;;5045593;28;20457;-71
2024/04/05 09:04:29;;;;;;;4.07;2.67;;;15.90;99.90;;;;;;5060510;28;20681;-71
2024/04/05 09:06:55;;;;;;;2.60;2.30;;;16.00;99.90;;;;;;5062495;28;20458;-73
2024/04/05 09:09:28;;;;;;;3.37;2.20;;;16.00;99.90;;;;;;5056013;28;20470;-72
2024/04/05 09:12:01;;;;;;;2.60;2.10;;;16.00;99.90;;;;;;5061550;28;20495;-73
2024/04/05 09:14:29;;;;;;;2.73;1.80;;;16.10;99.90;;;;;;5058747;28;20454;-72
2024/04/05 09:16:55;;;;;;;2.33;2.10;;;16.20;99.90;;;;;;5064117;28;20488;-74
2024/04/05 09:19:22;;;;;;;2.57;1.37;;;16.30;99.90;;;;;;5042664;28;20519;-73
2024/04/05 09:21:50;;;;;;;2.60;1.73;;;16.40;99.90;;;;;;5061521;28;20493;-73
2024/04/05 09:24:16;;;;;;;2.37;1.70;;;16.50;99.90;;;;;;5058549;28;20465;-73
2024/04/05 09:26:43;;;;;;;2.70;2.37;;;16.50;99.90;;;;;;5060727;28;20469;-73
2024/04/05 09:29:13;;;;;;;2.37;1.97;;;16.70;99.90;;;;;;5058553;28;20708;-72
2024/04/05 09:31:45;;;;;;;4.20;1.73;;;16.90;99.90;;;;;;5065519;28;20481;-73
2024/04/05 09:34:16;;;;;;;2.50;1.80;;;17.20;99.90;;;;;;5054704;28;20458;-73
2024/04/05 09:36:42;;;;;;;2.50;2.30;;;17.20;99.90;;;;;;5060609;28;21002;-73
2024/04/05 09:39:16;;;;;;;4.00;1.83;;;17.20;99.90;;;;;;5056271;28;20480;-73
2024/04/05 09:41:44;;;;;;;5.33;2.93;;;17.20;99.90;;;;;;5044910;28;20468;-73
2024/04/05 09:44:11;;;;;;;1.87;1.77;;;17.20;99.90;;;;;;5041208;28;20484;-71
2024/04/05 09:46:38;;;;;;;3.03;1.90;;;17.20;99.90;;;;;;5062043;28;20497;-71
2024/04/05 09:49:05;;;;;;;2.27;2.07;;;17.20;99.90;;;;;;5059761;28;20473;-73
2024/04/05 09:51:44;;;;;;;2.70;1.80;;;17.20;99.90;;;;;;5062942;28;21064;-72
2024/04/05 09:54:15;;;;;;;3.77;2.63;;;17.30;99.90;;;;;;5066936;28;20485;-73
2024/04/05 09:56:42;;;;;;;2.70;1.90;;;17.30;99.90;;;;;;5047642;28;20496;-73
2024/04/05 09:59:29;;;;;;;4.90;2.23;;;17.30;99.90;;;;;;5070507;28;20539;-73
2024/04/05 10:01:55;;;;;;;2.50;2.13;;;17.30;99.90;;;;;;5068814;28;20470;-73
2024/04/05 10:04:21;;;;;;;4.10;2.13;;;17.40;99.90;;;;;;5045393;28;20465;-73
2024/04/05 10:06:47;;;;;;;3.20;2.20;;;17.40;99.90;;;;;;5064122;28;20884;-73
2024/04/05 10:09:21;;;;;;;2.57;1.83;;;17.50;99.90;;;;;;5067156;28;20230;-73
2024/04/05 10:11:49;;;;;;;2.23;2.00;;;17.40;99.90;;;;;;5068028;28;20461;-72
2024/04/05 10:14:23;;;;;;;2.90;2.10;;;17.50;99.90;;;;;;5067735;28;20473;-73
2024/04/05 10:16:50;;;;;;;3.70;2.17;;;17.50;99.90;;;;;;5068404;28;20515;-73
2024/04/05 10:19:16;;;;;;;2.63;2.17;;;17.60;99.90;;;;;;5065519;28;20450;-73
2024/04/05 10:21:48;;;;;;;7.20;2.57;;;17.80;99.90;;;;;;5060750;28;20502;-73
2024/04/05 10:24:17;;;;;;;2.70;2.50;;;18.30;99.90;;;;;;5056121;28;20505;-73
2024/04/05 10:26:52;;;;;;;3.23;2.93;;;18.50;99.90;;;;;;5060680;28;20466;-73
2024/04/05 10:29:17;;;;;;;2.20;2.00;;;18.70;99.90;;;;;;5042419;28;20469;-73
2024/04/05 10:31:45;;;;;;;2.50;2.17;;;19.00;99.90;;;;;;5059892;28;20873;-73
2024/04/05 10:34:11;;;;;;;1.80;1.70;;;19.30;99.90;;;;;;5055244;28;20496;-73
2024/04/05 10:36:37;;;;;;;3.00;2.23;;;19.20;99.90;;;;;;5060917;28;20708;-72
2024/04/05 10:39:17;;;;;;;2.10;1.90;;;19.30;99.90;;;;;;5056037;28;20222;-73
2024/04/05 10:41:43;;;;;;;2.10;1.97;;;19.30;99.90;;;;;;5060959;28;20462;-74
2024/04/05 10:44:10;;;;;;;3.03;1.93;;;19.50;99.90;;;;;;5055864;28;20473;-73
2024/04/05 10:46:39;;;;;;;2.80;2.07;;;19.50;99.90;;;;;;5057402;28;20456;-73
2024/04/05 10:49:05;;;;;;;4.13;2.57;;;19.40;99.90;;;;;;5038667;28;20836;-73
2024/04/05 10:51:31;;;;;;;2.20;1.67;;;19.60;99.90;;;;;;5058766;28;20539;-72
2024/04/05 10:54:07;;;;;;;3.23;2.00;;;19.70;99.90;;;;;;5058340;28;20595;-74
2024/04/05 10:56:38;;;;;;;3.50;2.10;;;19.80;99.90;;;;;;5058433;28;20227;-73
2024/04/05 10:59:06;;;;;;;4.20;2.50;;;20.00;99.90;;;;;;5039267;28;20475;-73
2024/04/05 11:01:35;;;;;;;2.03;1.67;;;20.10;99.90;;;;;;5057551;28;20458;-73
2024/04/05 11:04:02;;;;;;;2.10;1.90;;;20.30;99.90;;;;;;5059769;28;20465;-74
2024/04/05 11:06:28;;;;;;;2.60;1.83;;;20.10;99.90;;;;;;5061898;28;20457;-73
2024/04/05 11:08:55;;;;;;;3.23;2.10;;;20.10;99.90;;;;;;5060980;28;20465;-73
2024/04/05 11:11:21;;;;;;;1.20;1.10;;;20.00;99.90;;;;;;5064502;28;20219;-72
2024/04/05 11:13:47;;;;;;;1.30;1.20;;;19.90;99.90;;;;;;5066623;28;20461;-73
2024/04/05 11:16:15;;;;;;;2.73;2.53;;;19.70;99.90;;;;;;5066238;28;21026;-72
2024/04/05 11:18:41;;;;;;;1.37;1.27;;;19.60;99.90;;;;;;5066912;28;20330;-72
2024/04/05 11:21:14;;;;;;;4.73;1.70;;;19.50;99.90;;;;;;5051883;28;20465;-73
2024/04/05 11:23:55;;;;;;;2.00;1.57;;;19.40;99.90;;;;;;5065138;28;20312;-73
2024/04/05 11:26:28;;;;;;;2.93;1.40;;;19.40;99.90;;;;;;5066502;28;20469;-73
2024/04/05 11:28:54;;;;;;;1.30;1.30;;;19.30;99.90;;;;;;5061193;28;20539;-73
2024/04/05 11:31:19;;;;;;;1.37;1.13;;;19.30;99.90;;;;;;5061461;28;20515;-73
2024/04/05 11:33:45;;;;;;;2.00;1.30;;;19.20;99.90;;;;;;5051589;28;20741;-73
2024/04/05 11:36:11;;;;;;;1.50;1.40;;;19.20;99.90;;;;;;5062429;28;20229;-73
2024/04/05 11:38:37;;;;;;;4.00;1.60;;;19.30;99.90;;;;;;5043223;28;20816;-73
2024/04/05 11:41:05;;;;;;;2.73;2.00;;;19.40;99.90;;;;;;5061844;28;20457;-72
2024/04/05 11:43:31;;;;;;;1.80;1.00;;;19.40;99.90;;;;;;5063433;28;20222;-73
2024/04/05 11:45:56;;;;;;;1.37;1.27;;;19.60;99.90;;;;;;5062915;28;20832;-73
2024/04/05 11:48:23;;;;;;;2.90;1.30;;;19.70;99.90;;;;;;5058178;28;20211;-73
2024/04/05 11:50:50;;;;;;;2.50;1.60;;;19.90;99.90;;;;;;5066817;28;20265;-73
2024/04/05 11:53:16;;;;;;;2.53;1.53;;;19.80;99.90;;;;;;5065552;28;20553;-72
2024/04/05 11:55:41;;;;;;;3.50;1.67;;;19.90;99.90;;;;;;5059909;28;20534;-73
2024/04/05 11:58:07;;;;;;;1.30;1.20;;;20.00;99.90;;;;;;5064925;28;20219;-73
2024/04/05 12:00:33;;;;;;;4.23;1.60;;;19.90;99.90;;;;;;5044197;28;20277;-73
2024/04/05 12:02:59;;;;;;;1.20;1.10;;;20.00;99.90;;;;;;5047005;28;20225;-73
2024/04/05 12:05:24;;;;;;;2.23;1.50;;;19.90;99.90;;;;;;5062943;28;20208;-74
2024/04/05 12:07:50;;;;;;;1.77;1.40;;;20.00;99.90;;;;;;5064746;28;20223;-73
2024/04/05 12:10:17;;;;;;;1.30;1.10;;;20.00;99.90;;;;;;5063209;28;20211;-72
2024/04/05 12:12:42;;;;;;;1.50;1.43;;;19.90;99.90;;;;;;5064755;28;20219;-73
2024/04/05 12:15:08;;;;;;;1.50;1.40;;;19.90;99.90;;;;;;5051634;28;20518;-73
2024/04/05 12:17:36;;;;;;;1.40;1.30;;;20.00;99.90;;;;;;5059038;28;20310;-73
2024/04/05 12:20:05;;;;;;;3.50;1.43;;;19.90;99.90;;;;;;5065182;28;20223;-73
2024/04/05 12:22:31;;;;;;;1.37;1.27;;;19.90;99.90;;;;;;5062264;28;20524;-73
2024/04/05 12:24:57;;;;;;;4.87;2.40;;;19.80;99.90;;;;;;5064990;28;20568;-74
2024/04/05 12:27:23;;;;;;;2.30;1.47;;;19.90;99.90;;;;;;5062184;28;20214;-73
2024/04/05 12:29:49;;;;;;;1.33;1.10;;;19.80;99.90;;;;;;5058977;28;20355;-73
2024/04/05 12:32:15;;;;;;;1.60;1.50;;;19.70;99.90;;;;;;5067038;28;20234;-73
2024/04/05 12:34:41;;;;;;;1.27;1.17;;;19.70;99.90;;;;;;5058035;28;20227;-73
2024/04/05 12:37:08;;;;;;;2.33;1.00;;;19.60;99.90;;;;;;5048502;28;20458;-73
2024/04/05 12:39:35;;;;;;;1.20;1.10;;;19.60;99.90;;;;;;5058010;28;20471;-73
2024/04/05 12:42:00;;;;;;;1.50;1.40;;;19.50;99.90;;;;;;5067851;28;20485;-73